Piney View, WV (25906)

12:41 PM EDT on August 31, 2016 (GMT -0400)
Raleigh County Memorial | | Change Station

Elev 2513 ft 37.79 °N, 81.12 °W | Updated 42 minutes ago

Mostly Cloudy
Mostly Cloudy
80 °F
Feels Like 82 °F
N
9
Wind Variable Wind from SW

Today
High -- | Low -- °F
--% Chance of Precip.
Yesterday
High -- | Low -- °F
Precip. -- in
Pressure 30.09 in
Visibility 10.0 miles
Clouds Scattered Clouds 3000 ft
Mostly Cloudy 3600 ft
Mostly Cloudy 4400 ft
Heat Index 82 °F
Dew Point 66 °F
Humidity 62%
Rainfall 0.00 in
Snow Depth Not available.
6:54 AM 7:54 PM
Waning Crescent, 0% visible
SPECI KBKW 311559Z AUTO 22008KT 10SM SCT030 BKN036 BKN044 27/19 A3009 RMK AO2 T02670189 CHINO RWY19
Pressure 30.09 in
Visibility 10.0 miles
Clouds Scattered Clouds 3000 ft
Mostly Cloudy 3600 ft
Mostly Cloudy 4400 ft
Heat Index 82 °F
Dew Point 66 °F
Humidity 62%
Rainfall 0.00 in
Snow Depth Not available.
6:54 AM 7:54 PM
Waning Crescent, 0% visible
SPECI KBKW 311559Z AUTO 22008KT 10SM SCT030 BKN036 BKN044 27/19 A3009 RMK AO2 T02670189 CHINO RWY19

10-Day Weather Forecast

Almanac

Astronomy

Aug. 31, 2016 Rise Set
Actual Time
Civil Twilight
Nautical Twilight
Astronomical Twilight
Moon
Length of Visible Light
Length of Day
Tomorrow will be .
, % of the Moon is Illuminated

Today's Extremes

State Highs State Lows

Community

WunderPhotos

Upload Photos

1,936,119 photos uploaded!

WunderBlog® & News

Nearby

Air Quality

  Air Quality AQ Index Pollutant
Not available.

Snow Depth

Station Depth Elevation

Earthquake Activity

City Distance Mag. Time & Date
Minimum magnitude displayed is 2.5.

Coastal Water Temperatures

Place Temperature

Stations

Nearby Weather Stations

Station Location Temp. Windchill Dew Point Humidity Wind Precip. Elev Updated Type
                   

Watches & Warnings

There are currently no watches in effect.